Terminal Aerodrome Forecast
Issued by NWS

Home | Current Version | Previous Version | Text Only | Print | Product List | Glossary On
Versions: 1 2 3 4 5 6 7 8 9 10 11 12 13 14 15 16 17 18 19
342
FTUS45 KRIW 292323
TAFCPR
TAF
KCPR 292323Z 3000/3024 23008KT P6SM FEW090
     FM300300 24008KT P6SM BKN090
     FM300900 23011KT P6SM SCT100 BKN150
     FM302000 30012G18KT P6SM SCT090
     FM302300 33012G20KT P6SM VCTS SCT050CB BKN070=

USA.gov is the U.S. government's official web portal to all federal, state and local government web resources and services.